Impacts TAF Board INFO
FOR SITUATIONAL AWARENESS. NOT TO BE USED FOR FLIGHT PLANNING PURPOSES.
IDs:

KBOS - Boston/Logan Intl, MA, US

Issued at 0540 UTC 21 Jan 2018
Updated at 0900 UTC 21 Jan 2018
Potential Impact None Slight Moderate High
Time<<22/09Z 22/10Z 22/11Z 22/12Z 22/13Z 22/14Z 22/15Z 22/16Z 22/17Z 22/18Z 22/19Z 22/20Z 22/21Z
Type PRVL PRVL PRVL
VIS >6 >6 >6
CIG 60 60 60
Cover BKN BKN BKN
FltCat VFR VFR VFR
WX -- -- --
WDir VRB VRB VRB
WSpd 0 0 0
WGst -- -- --

Raw TAF
KBOS 210540Z 2106/2212 27008KT P6SM BKN250
  FM212100 00000KT P6SM SCT150
  FM220900 00000KT P6SM BKN060


METAR Board
Radar Display
Forecast Discussion

FOR SITUATIONAL AWARENESS. NOT TO BE USED FOR FLIGHT PLANNING PURPOSES.